Weather History for McConnell AFB, KS

Change the Weather History Date:

Tuesday, January 1, 2013

  Actual Average Record
Temperature  
Mean Temperature 22 °F -  
Max Temperature 27 °F 44 °F 68 °F (2005)
Min Temperature 17 °F 23 °F 10 °F (2011)
Degree Days  
Heating Degree Days 43    
Moisture  
Dew Point 22 °F    
Average Humidity 96    
Maximum Humidity 100    
Minimum Humidity 77    
Precipitation  
Precipitation 0.00 in - - ()
Sea Level Pressure  
Sea Level Pressure 30.26 in    
Wind  
Wind Speed 12 mph (NNE)    
Max Wind Speed 16 mph    
Max Gust Speed -    
Visibility 8 miles    
Events Rain , Snow    
Averages and records for this station are not official NWS values.
T = Trace of Precipitation, MM = Missing Value Source: NWS Daily Summary

Daily Weather History Graph

Daily Weather History Graph

Search for Another Location

Airport:

Trip Planner

Search our weather history database for the weather conditions in past years. The results will help you decide how hot, cold, wet, or windy it might be!

Date:

Astronomy

Jan. 01, 2013 Rise Set
Actual Time 7:44 AM CST 5:21 PM CST
Civil Twilight 7:14 AM CST 5:50 PM CST
Nautical Twilight 6:42 AM CST 6:23 PM CST
Astronomical Twilight 6:10 AM CST 6:55 PM CST
Moon 9:48 PM CST (1/1) 10:01 AM CST (1/1)
Length of Visible Light 10h 35m
Length of Day
9h 37m
Waning Gibbous, 83% of the Moon is Illuminated
Jan 1
Waning Gibbous
Jan 4
Last Quarter
Jan 11
New
Jan 18
First Quarter
Jan 26
Full

Hourly Weather History & Observations

Time (CST) Temp. Windchill Dew Point Humidity Pressure Visibility Wind Dir Wind Speed Gust Speed Precip Events Conditions
12:13 AM 24.8 °F 12.9 °F 24.8 °F 100% 30.17 in 6.0 mi NNE 13.8 mph - N/A   Overcast
12:22 AM 24.8 °F 13.4 °F 24.8 °F 100% 30.18 in 5.0 mi NNE 12.7 mph - N/A   Overcast
12:25 AM 24.8 °F 14.0 °F 24.8 °F 100% 30.18 in 5.0 mi NNE 11.5 mph - N/A   Overcast
12:31 AM 24.8 °F 13.4 °F 24.8 °F 100% 30.17 in 5.0 mi NNE 12.7 mph - N/A Snow Light Snow
12:55 AM 24.8 °F 13.4 °F 24.8 °F 100% 30.19 in 4.0 mi NNE 12.7 mph - 0.00 in   Overcast
1:06 AM 24.8 °F 12.9 °F 24.8 °F 100% 30.18 in 5.0 mi NNE 13.8 mph - N/A   Overcast
1:07 AM 24.8 °F 12.4 °F 24.8 °F 100% 30.18 in 5.0 mi NNE 15.0 mph - N/A   Overcast
1:08 AM 24.8 °F 11.9 °F 24.8 °F 100% 30.18 in 5.0 mi NNE 16.1 mph - N/A   Overcast
1:14 AM 24.8 °F 13.4 °F 24.8 °F 100% 30.18 in 5.0 mi NNE 12.7 mph - N/A   Overcast
1:21 AM 24.8 °F 14.0 °F 24.8 °F 100% 30.18 in 6.0 mi NNE 11.5 mph - N/A   Overcast
1:39 AM 24.8 °F 12.9 °F 24.8 °F 100% 30.18 in 6.0 mi NNE 13.8 mph - N/A   Overcast
1:45 AM 24.8 °F 12.4 °F 24.8 °F 100% 30.17 in 6.0 mi NNE 15.0 mph - N/A   Overcast
1:55 AM 24.1 °F 12.5 °F 24.1 °F 100% 30.17 in 8.0 mi NNE 12.7 mph - 0.00 in Snow Light Snow
2:55 AM 23.7 °F 11.0 °F 23.7 °F 100% 30.27 in 8.0 mi NNE 15.0 mph - 0.00 in Snow Light Snow
3:07 AM 23.0 °F 10.1 °F 23.0 °F 100% 30.18 in 8.0 mi NNE 15.0 mph - N/A   Overcast
3:10 AM 23.0 °F 9.6 °F 23.0 °F 100% 30.19 in 8.0 mi NNE 16.1 mph - N/A   Overcast
3:28 AM 23.0 °F 9.6 °F 23.0 °F 100% 30.18 in 10.0 mi NNE 16.1 mph - N/A   Overcast
3:55 AM 23.4 °F 12.2 °F 23.4 °F 100% 30.19 in 10.0 mi NNE 11.5 mph - 0.00 in   Overcast
4:21 AM 23.0 °F 10.6 °F 23.0 °F 100% 30.20 in 10.0 mi NNE 13.8 mph - N/A   Overcast
4:40 AM 23.0 °F 10.6 °F 23.0 °F 100% 30.20 in 10.0 mi NNE 13.8 mph - N/A Snow Light Snow
4:55 AM 22.8 °F 10.9 °F 22.6 °F 99% 30.21 in 9.0 mi NNE 12.7 mph - 0.00 in Snow Light Snow
5:10 AM 23.0 °F 9.6 °F 23.0 °F 100% 30.21 in 8.0 mi NNE 16.1 mph - N/A   Overcast
5:12 AM 23.0 °F 10.1 °F 23.0 °F 100% 30.21 in 8.0 mi NNE 15.0 mph - N/A   Overcast
5:20 AM 23.0 °F 10.1 °F 23.0 °F 100% 30.22 in 7.0 mi NNE 15.0 mph - N/A Rain Light Freezing Rain
5:29 AM 23.0 °F 10.6 °F 23.0 °F 100% 30.23 in 7.0 mi North 13.8 mph - N/A Rain Light Freezing Rain
5:38 AM 23.0 °F 11.7 °F 23.0 °F 100% 30.23 in 6.0 mi NNE 11.5 mph - N/A Rain Light Freezing Rain
5:55 AM 22.1 °F 10.0 °F 22.1 °F 100% 30.24 in 8.0 mi NNE 12.7 mph - 0.00 in Rain Light Freezing Rain
6:02 AM 21.2 °F 9.5 °F 21.2 °F 100% 30.24 in 9.0 mi NNE 11.5 mph - N/A Snow Light Snow
6:09 AM 21.2 °F 8.3 °F 21.2 °F 100% 30.25 in 10.0 mi NNE 13.8 mph - N/A Snow Light Snow
6:10 AM 21.2 °F 8.9 °F 21.2 °F 100% 30.25 in 10.0 mi NNE 12.7 mph - N/A   Overcast
6:20 AM 21.2 °F 8.3 °F 21.2 °F 100% 30.24 in 10.0 mi NNE 13.8 mph - N/A   Overcast
6:41 AM 21.2 °F 8.9 °F 21.2 °F 100% 30.26 in 10.0 mi NNE 12.7 mph - N/A   Overcast
6:42 AM 21.2 °F 8.9 °F 21.2 °F 100% 30.26 in 10.0 mi NNE 12.7 mph - N/A   Overcast
6:55 AM 21.6 °F 8.2 °F 21.4 °F 99% 30.26 in 10.0 mi NNE 15.0 mph - 0.00 in   Overcast
7:18 AM 21.2 °F 8.9 °F 21.2 °F 100% 30.27 in 10.0 mi NNE 12.7 mph - N/A Snow Light Snow
7:21 AM 21.2 °F 8.9 °F 21.2 °F 100% 30.28 in 10.0 mi NNE 12.7 mph - N/A Snow Light Snow
7:29 AM 21.2 °F 8.9 °F 21.2 °F 100% 30.27 in 10.0 mi NNE 12.7 mph - N/A   Overcast
7:35 AM 21.2 °F 8.3 °F 21.2 °F 100% 30.28 in 10.0 mi NNE 13.8 mph - N/A Snow Light Snow
7:55 AM 21.0 °F 9.3 °F 20.3 °F 97% 30.28 in 10.0 mi NNE 11.5 mph - 0.00 in   Overcast
8:03 AM 21.2 °F 8.9 °F 19.4 °F 93% 30.29 in 10.0 mi NNE 12.7 mph - N/A   Overcast
8:55 AM 20.7 °F 8.2 °F 19.4 °F 95% 30.30 in 10.0 mi NNE 12.7 mph - 0.00 in Snow Light Snow
9:55 AM 21.0 °F 9.3 °F 19.8 °F 95% 30.33 in 10.0 mi NNE 11.5 mph - 0.00 in Snow Light Snow
10:55 AM 21.2 °F 10.1 °F 20.1 °F 96% 30.35 in 9.0 mi NNE 10.4 mph - 0.00 in Snow Light Snow
11:55 AM 22.1 °F 12.0 °F 20.8 °F 95% 30.34 in 8.0 mi North 9.2 mph - 0.00 in Snow Light Snow
12:10 PM 23.0 °F 13.9 °F 21.2 °F 93% 30.34 in 9.0 mi North 8.1 mph - N/A Snow Light Snow
12:22 PM 23.0 °F 14.7 °F 21.2 °F 93% 30.34 in 9.0 mi North 6.9 mph - N/A Snow Light Snow
12:25 PM 23.0 °F 14.7 °F 21.2 °F 93% 30.34 in 9.0 mi North 6.9 mph - N/A Snow Light Snow
12:27 PM 23.0 °F 13.9 °F 21.2 °F 93% 30.33 in 9.0 mi North 8.1 mph - N/A Snow Light Snow
12:34 PM 23.0 °F 13.1 °F 21.2 °F 93% 30.33 in 9.0 mi North 9.2 mph - N/A Snow Light Snow
12:37 PM 23.0 °F 13.9 °F 21.2 °F 93% 30.33 in 10.0 mi North 8.1 mph - N/A Snow Light Snow
12:40 PM 23.0 °F 13.9 °F 21.2 °F 93% 30.33 in 10.0 mi North 8.1 mph - N/A   Scattered Clouds
12:55 PM 23.5 °F 14.5 °F 21.7 °F 93% 30.32 in 10.0 mi North 8.1 mph - 0.00 in   Partly Cloudy
1:55 PM 24.8 °F 16.1 °F 20.3 °F 83% 30.31 in 10.0 mi North 8.1 mph - N/A   Mostly Cloudy
2:55 PM 26.8 °F 20.2 °F 21.2 °F 79% 30.31 in 10.0 mi North 5.8 mph - N/A   Clear
3:55 PM 27.7 °F 20.4 °F 21.4 °F 77% 30.31 in 10.0 mi North 6.9 mph - N/A   Clear
4:55 PM 26.4 °F 17.3 °F 20.5 °F 78% 30.31 in 10.0 mi NW 9.2 mph - N/A   Clear
5:55 PM 23.7 °F 16.6 °F 19.9 °F 85% 30.31 in 10.0 mi North 5.8 mph - N/A   Clear
6:55 PM 21.6 °F 14.0 °F 19.0 °F 90% 30.32 in 10.0 mi North 5.8 mph - N/A   Clear
7:55 PM 21.4 °F 16.6 °F 17.8 °F 86% 30.34 in 10.0 mi North 3.5 mph - N/A   Clear
8:55 PM 20.5 °F 14.0 °F 17.8 °F 89% 30.32 in 10.0 mi North 4.6 mph - N/A   Clear
9:55 PM 19.0 °F - 17.8 °F 95% 30.31 in 10.0 mi Calm Calm - N/A   Clear
10:55 PM 17.2 °F 11.9 °F 16.3 °F 96% 30.33 in 8.0 mi West 3.5 mph - N/A   Clear
11:33 PM 17.6 °F 10.7 °F 17.6 °F 100% 30.32 in 6.0 mi WNW 4.6 mph - N/A   Clear
11:40 PM 17.6 °F 10.7 °F 17.6 °F 100% 30.32 in 6.0 mi WNW 4.6 mph - N/A   Clear
11:55 PM 17.8 °F 10.9 °F 17.6 °F 99% 30.33 in 8.0 mi West 4.6 mph - N/A   Clear